Terminal Aerodrome Forecast
Issued by NWS

Home | Current Version | Previous Version | Text Only | Print | Product List | Glossary On
Versions: 1 2 3 4 5 6 7 8 9 10 11 12 13 14
000
FTAK31 PAFA 310538
TAFAFA
TAF
PAFA 310538Z 3106/0112 00000KT P6SM -SHSN SCT015 OVC040
     FM311500 04004KT P6SM OVC040
     FM312100 04008KT P6SM BKN050 BKN100=

USA.gov is the U.S. government's official web portal to all federal, state and local government web resources and services.